createdAt,value
2022-08-07T00:01:44.272Z,7.75
2022-08-07T00:03:56.505Z,7.35
2022-08-07T00:06:33.201Z,7.03
2022-08-07T00:08:55.270Z,7.15
2022-08-07T00:11:30.051Z,6.97
2022-08-07T00:13:52.737Z,6.78
2022-08-07T00:16:28.043Z,6.75
2022-08-07T00:18:52.129Z,7.00
2022-08-07T00:21:56.288Z,6.72
2022-08-07T00:23:50.833Z,6.60
2022-08-07T00:26:31.394Z,6.62
2022-08-07T00:28:55.356Z,6.80
2022-08-07T00:31:17.903Z,6.40
2022-08-07T00:33:47.428Z,6.37
2022-08-07T00:36:16.929Z,6.50
2022-08-07T00:38:44.918Z,6.20
2022-08-07T00:41:14.679Z,6.37
2022-08-07T00:44:00.667Z,6.35
2022-08-07T00:46:13.310Z,6.17
2022-08-07T00:48:42.516Z,6.25
2022-08-07T00:51:11.366Z,6.62
2022-08-07T00:53:50.245Z,6.05
2022-08-07T00:56:14.051Z,6.50
2022-08-07T00:58:42.876Z,5.90
2022-08-07T01:01:12.378Z,5.90
2022-08-07T01:03:55.298Z,6.40
2022-08-07T01:06:12.287Z,6.37
2022-08-07T01:08:43.209Z,6.10
2022-08-07T01:12:10.299Z,5.60
2022-08-07T01:13:41.859Z,5.80
2022-08-07T01:16:11.770Z,6.50
2022-08-07T01:18:41.516Z,5.60
2022-08-07T01:21:22.703Z,5.90
2022-08-07T01:23:47.901Z,5.47
2022-08-07T01:26:20.278Z,5.40
2022-08-07T01:28:51.002Z,5.30
2022-08-07T01:31:24.222Z,5.78
2022-08-07T01:33:57.460Z,5.90
2022-08-07T01:36:33.249Z,5.50
2022-08-07T01:38:57.296Z,5.67
2022-08-07T01:41:27.043Z,5.58
2022-08-07T01:43:56.914Z,5.47
2022-08-07T01:46:26.557Z,5.55
2022-08-07T01:48:55.404Z,5.25
2022-08-07T01:52:01.600Z,5.37
2022-08-07T01:54:12.159Z,5.78
2022-08-07T01:56:53.032Z,5.67
2022-08-07T01:59:31.905Z,7.80
2022-08-07T02:02:11.871Z,6.70
2022-08-07T02:05:02.558Z,5.70
2022-08-07T02:07:50.411Z,5.85
2022-08-07T02:10:14.389Z,5.97
2022-08-07T02:12:50.098Z,5.67
2022-08-07T02:15:25.469Z,5.78
2022-08-07T02:18:03.572Z,6.33
2022-08-07T02:20:37.281Z,5.80
2022-08-07T02:23:12.544Z,5.72
2022-08-07T02:26:30.697Z,5.65
2022-08-07T02:28:27.086Z,6.28
2022-08-07T02:30:58.905Z,6.25
2022-08-07T02:33:32.808Z,6.20
2022-08-07T02:36:30.865Z,5.72
2022-08-07T02:38:50.877Z,5.75
2022-08-07T02:41:13.117Z,5.83
2022-08-07T02:43:43.675Z,7.05
2022-08-07T02:46:23.206Z,5.22
2022-08-07T02:48:55.056Z,5.17
2022-08-07T02:51:42.829Z,5.80
2022-08-07T02:53:57.912Z,5.97
2022-08-07T02:56:30.001Z,6.08
2022-08-07T02:59:04.619Z,5.65
2022-08-07T03:01:36.693Z,5.75
2022-08-07T03:04:12.842Z,5.87
2022-08-07T03:06:44.846Z,6.35
2022-08-07T03:11:51.817Z,5.75
2022-08-07T03:14:12.531Z,6.10
2022-08-07T03:16:40.737Z,6.28
2022-08-07T03:19:10.903Z,6.45
2022-08-07T03:21:40.439Z,5.67
2022-08-07T03:24:17.897Z,5.80
2022-08-07T03:26:51.030Z,5.85
2022-08-07T03:29:14.741Z,6.12
2022-08-07T03:31:46.243Z,6.78
2022-08-07T03:34:18.696Z,6.60
2022-08-07T03:36:50.571Z,6.62
2022-08-07T03:39:56.550Z,7.95
2022-08-07T03:41:50.896Z,7.00
2022-08-07T03:44:21.738Z,6.17
2022-08-07T03:47:13.104Z,6.22
2022-08-07T03:49:20.200Z,5.92
2022-08-07T03:51:57.336Z,5.65
2022-08-07T03:54:35.128Z,5.62
2022-08-07T03:57:03.531Z,5.40
2022-08-07T03:59:27.157Z,6.12
2022-08-07T04:01:56.311Z,6.83
2022-08-07T04:04:26.749Z,8.93
2022-08-07T04:06:57.515Z,5.90
2022-08-07T04:09:38.079Z,6.28
2022-08-07T04:12:25.932Z,5.85
2022-08-07T04:14:37.248Z,6.20
2022-08-07T04:16:59.486Z,6.30
2022-08-07T04:19:34.088Z,6.05
2022-08-07T04:22:07.787Z,6.30
2022-08-07T04:24:34.052Z,6.60
2022-08-07T04:27:02.554Z,6.17
2022-08-07T04:29:48.668Z,6.60
2022-08-07T04:32:09.942Z,6.35
2022-08-07T04:34:34.153Z,6.53
2022-08-07T04:37:02.986Z,6.10
2022-08-07T04:39:35.888Z,6.35
2022-08-07T04:42:04.633Z,6.40
2022-08-07T04:44:35.588Z,6.30
2022-08-07T04:47:11.251Z,6.35
2022-08-07T04:49:58.032Z,6.58
2022-08-07T04:52:51.221Z,6.53
2022-08-07T04:58:12.436Z,10.40
2022-08-07T04:59:17.488Z,7.00
2022-08-07T05:01:40.971Z,7.42
2022-08-07T05:04:18.820Z,6.62
2022-08-07T05:07:19.678Z,6.15
2022-08-07T05:10:04.911Z,5.60
2022-08-07T05:12:52.806Z,5.87
2022-08-07T05:15:23.066Z,5.75
2022-08-07T05:17:54.616Z,5.90
2022-08-07T05:20:26.390Z,5.90
2022-08-07T05:22:59.868Z,6.42
2022-08-07T05:25:54.413Z,6.03
2022-08-07T05:28:03.336Z,9.10
2022-08-07T05:30:33.079Z,6.30
2022-08-07T05:33:05.223Z,6.50
2022-08-07T05:35:42.208Z,6.30
2022-08-07T05:38:09.036Z,6.72
2022-08-07T05:40:50.468Z,6.67
2022-08-07T05:43:10.579Z,6.60
2022-08-07T05:45:47.416Z,6.45
2022-08-07T05:48:10.871Z,6.33
2022-08-07T05:50:43.026Z,6.50
2022-08-07T05:54:08.609Z,6.40
2022-08-07T05:56:03.350Z,6.30
2022-08-07T05:58:16.930Z,6.08
2022-08-07T06:00:50.779Z,6.25
2022-08-07T06:03:21.272Z,6.30
2022-08-07T06:05:56.544Z,6.40
2022-08-07T06:08:30.937Z,6.60
2022-08-07T06:10:51.213Z,7.47
2022-08-07T06:13:20.902Z,6.28
2022-08-07T06:15:51.116Z,5.97
2022-08-07T06:18:21.751Z,6.53
2022-08-07T06:22:16.733Z,6.55
2022-08-07T06:23:24.941Z,6.35
2022-08-07T06:25:54.471Z,6.50
2022-08-07T06:28:27.333Z,6.00
2022-08-07T06:30:52.965Z,6.10
2022-08-07T06:33:22.918Z,5.80
2022-08-07T06:36:13.239Z,6.60
2022-08-07T06:38:20.904Z,6.70
2022-08-07T06:40:53.130Z,7.00
2022-08-07T06:43:24.483Z,6.12
2022-08-07T06:46:00.866Z,6.20
2022-08-07T06:48:27.359Z,6.25
2022-08-07T06:50:59.939Z,6.20
2022-08-07T06:54:11.643Z,6.78
2022-08-07T06:56:02.272Z,6.78
2022-08-07T06:58:34.936Z,6.47
2022-08-07T07:01:09.257Z,6.30
2022-08-07T07:03:49.278Z,6.50
2022-08-07T07:06:11.276Z,5.50
2022-08-07T07:08:39.877Z,5.83
2022-08-07T07:11:14.008Z,6.20
2022-08-07T07:13:58.091Z,5.87
2022-08-07T07:16:21.270Z,5.70
2022-08-07T07:19:04.077Z,5.50
2022-08-07T07:22:04.269Z,5.05
2022-08-07T07:24:12.563Z,4.97
2022-08-07T07:26:49.644Z,4.90
2022-08-07T07:29:38.978Z,5.10
2022-08-07T07:31:50.974Z,5.00
2022-08-07T07:34:23.125Z,4.87
2022-08-07T07:36:54.226Z,4.87
2022-08-07T07:39:25.691Z,4.78
2022-08-07T07:42:13.029Z,5.50
2022-08-07T07:44:28.379Z,5.40
2022-08-07T07:47:04.249Z,5.20
2022-08-07T07:50:33.756Z,5.35
2022-08-07T07:52:01.182Z,5.42
2022-08-07T07:54:32.081Z,5.25
2022-08-07T07:57:03.061Z,5.10
2022-08-07T07:59:52.686Z,4.95
2022-08-07T08:02:10.356Z,5.20
2022-08-07T08:04:37.300Z,5.53
2022-08-07T08:07:07.681Z,5.60
2022-08-07T08:09:52.017Z,5.03
2022-08-07T08:12:09.550Z,5.10
2022-08-07T08:14:39.282Z,4.90
2022-08-07T08:17:55.434Z,5.08
2022-08-07T08:20:18.508Z,5.50
2022-08-07T08:22:32.974Z,5.75
2022-08-07T08:25:41.933Z,6.15
2022-08-07T08:27:56.268Z,5.30
2022-08-07T08:30:24.439Z,5.15
2022-08-07T08:32:59.387Z,5.47
2022-08-07T08:35:42.821Z,5.67
2022-08-07T08:38:03.402Z,5.40
2022-08-07T08:40:38.984Z,5.33
2022-08-07T08:43:42.651Z,5.30
2022-08-07T08:46:14.759Z,5.12
2022-08-07T08:49:14.637Z,5.17
2022-08-07T08:52:14.067Z,5.40
2022-08-07T08:54:32.266Z,5.25
2022-08-07T08:57:08.392Z,5.45
2022-08-07T08:59:53.228Z,5.10
2022-08-07T09:02:41.772Z,5.15
2022-08-07T09:05:48.168Z,5.30
2022-08-07T09:08:43.880Z,5.30
2022-08-07T09:11:24.292Z,4.97
2022-08-07T09:14:13.289Z,5.08
2022-08-07T09:16:50.351Z,5.12
2022-08-07T09:19:53.320Z,5.10
2022-08-07T09:24:31.902Z,5.30
2022-08-07T09:25:26.038Z,4.80
2022-08-07T09:30:04.094Z,4.53
2022-08-07T09:31:02.920Z,4.83
2022-08-07T09:34:00.976Z,5.08
2022-08-07T09:36:52.665Z,4.72
2022-08-07T09:39:53.834Z,5.30
2022-08-07T09:42:31.583Z,4.65
2022-08-07T09:47:37.287Z,4.87
2022-08-07T09:48:14.461Z,4.65
2022-08-07T09:51:14.769Z,4.70
2022-08-07T09:53:48.927Z,4.30
2022-08-07T10:00:00.279Z,4.53
2022-08-07T10:02:41.350Z,4.20
2022-08-07T10:05:29.700Z,4.60
2022-08-07T10:08:05.861Z,4.25
2022-08-07T10:11:16.963Z,7.03
2022-08-07T10:14:00.319Z,4.30
2022-08-07T10:16:56.196Z,4.12
2022-08-07T10:19:59.842Z,4.30
2022-08-07T10:22:50.954Z,4.08
2022-08-07T10:25:32.824Z,4.45
2022-08-07T10:28:24.555Z,4.12
2022-08-07T10:31:11.139Z,4.08
2022-08-07T10:34:15.567Z,4.00
2022-08-07T10:36:41.601Z,4.05
2022-08-07T10:39:41.528Z,4.37
2022-08-07T10:42:21.376Z,4.40
2022-08-07T10:45:44.376Z,4.30
2022-08-07T10:48:03.867Z,4.50
2022-08-07T10:50:50.167Z,4.40
2022-08-07T10:54:06.630Z,4.30
2022-08-07T10:57:00.292Z,4.17
2022-08-07T10:59:57.525Z,4.40
2022-08-07T11:02:38.049Z,4.10
2022-08-07T11:05:51.153Z,4.30
2022-08-07T11:08:45.565Z,4.30
2022-08-07T11:11:37.650Z,4.70
2022-08-07T11:14:45.254Z,4.62
2022-08-07T11:17:07.325Z,4.45
2022-08-07T11:19:51.226Z,4.78
2022-08-07T11:22:46.247Z,4.50
2022-08-07T11:25:26.777Z,4.55
2022-08-07T11:28:15.624Z,4.47
2022-08-07T11:30:55.966Z,4.70
2022-08-07T11:33:58.444Z,4.85
2022-08-07T11:36:38.925Z,4.92
2022-08-07T11:40:00.999Z,5.00
2022-08-07T11:42:49.197Z,5.85
2022-08-07T11:46:03.394Z,5.08
2022-08-07T11:49:10.279Z,4.90
2022-08-07T11:51:44.977Z,4.80
2022-08-07T11:54:46.447Z,4.65
2022-08-07T11:57:59.444Z,4.85
2022-08-07T12:00:21.196Z,4.80
2022-08-07T12:03:03.941Z,4.37
2022-08-07T12:08:34.489Z,4.17
2022-08-07T12:11:21.201Z,4.00
2022-08-07T12:13:52.594Z,4.20
2022-08-07T12:16:30.230Z,4.83
2022-08-07T12:19:35.927Z,4.37
2022-08-07T12:22:38.654Z,4.40
2022-08-07T12:26:00.312Z,4.50
2022-08-07T12:28:09.688Z,4.20
2022-08-07T12:30:34.759Z,4.30
2022-08-07T12:33:23.335Z,4.22
2022-08-07T12:35:57.978Z,4.25
2022-08-07T12:38:38.448Z,4.35
2022-08-07T12:40:55.802Z,4.10
2022-08-07T12:44:02.416Z,4.22
2022-08-07T12:46:31.967Z,4.45
2022-08-07T12:49:09.754Z,4.17
2022-08-07T12:51:51.285Z,4.22
2022-08-07T12:54:38.376Z,4.08
2022-08-07T12:57:07.414Z,4.30
2022-08-07T12:59:53.905Z,4.50
2022-08-07T13:02:24.920Z,4.15
2022-08-07T13:06:01.970Z,4.20
2022-08-07T13:08:12.913Z,5.08
2022-08-07T13:10:44.027Z,4.22
2022-08-07T13:13:48.280Z,5.30
2022-08-07T13:16:32.442Z,4.12
2022-08-07T13:19:45.666Z,4.20
2022-08-07T13:22:33.448Z,4.22
2022-08-07T13:25:29.745Z,4.42
2022-08-07T13:28:10.883Z,9.23
2022-08-07T13:30:40.004Z,4.70
2022-08-07T13:34:34.325Z,4.97
2022-08-07T13:36:05.794Z,4.40
2022-08-07T13:39:11.299Z,4.30
2022-08-07T13:41:47.617Z,4.50
2022-08-07T13:44:27.124Z,5.10
2022-08-07T13:46:59.721Z,4.35
2022-08-07T13:50:35.582Z,4.35
2022-08-07T13:52:25.946Z,4.30
2022-08-07T13:54:42.986Z,4.12
2022-08-07T13:57:23.925Z,4.12
2022-08-07T13:59:50.186Z,3.90
2022-08-07T14:02:29.791Z,3.60
2022-08-07T14:05:11.818Z,3.22
2022-08-07T14:08:00.753Z,4.10
2022-08-07T14:10:24.380Z,4.33
2022-08-07T14:12:58.169Z,4.00
2022-08-07T14:15:50.432Z,4.08
2022-08-07T14:18:28.337Z,5.05
2022-08-07T14:21:08.344Z,8.15
2022-08-07T14:24:01.272Z,4.35
2022-08-07T14:28:57.409Z,3.80
2022-08-07T14:31:13.784Z,4.53
2022-08-07T14:33:45.474Z,4.63
2022-08-07T14:36:14.904Z,4.85
2022-08-07T14:38:50.443Z,4.53
2022-08-07T14:41:34.088Z,4.33
2022-08-07T14:44:08.074Z,4.37
2022-08-07T14:46:32.068Z,4.22
2022-08-07T14:49:17.407Z,4.05
2022-08-07T14:52:05.032Z,3.83
2022-08-07T14:54:09.510Z,12.78
2022-08-07T14:56:33.643Z,4.83
2022-08-07T14:59:13.422Z,4.25
2022-08-07T15:01:50.953Z,3.87
2022-08-07T15:04:14.130Z,4.25
2022-08-07T15:06:49.145Z,5.42
2022-08-07T15:09:58.007Z,4.50
2022-08-07T15:20:31.283Z,4.37
2022-08-07T15:22:22.164Z,4.35
2022-08-07T15:27:23.621Z,3.92
2022-08-07T15:32:40.040Z,3.67
2022-08-07T15:34:57.324Z,4.05
2022-08-07T15:42:52.083Z,3.83
2022-08-07T15:45:55.716Z,3.92
2022-08-07T15:48:07.589Z,3.52
2022-08-07T15:51:08.946Z,3.72
2022-08-07T15:53:18.385Z,4.03
2022-08-07T15:56:02.125Z,4.42
2022-08-07T15:58:44.741Z,3.92
2022-08-07T16:01:21.763Z,4.03
2022-08-07T16:03:55.775Z,4.03
2022-08-07T16:06:50.838Z,3.90
2022-08-07T16:09:23.214Z,4.25
2022-08-07T16:13:01.283Z,4.45
2022-08-07T16:15:57.418Z,4.17
2022-08-07T16:18:43.546Z,4.50
2022-08-07T16:22:03.348Z,4.30
2022-08-07T16:27:18.778Z,4.65
2022-08-07T16:30:32.103Z,5.03
2022-08-07T16:34:03.451Z,4.60
2022-08-07T16:36:19.954Z,4.80
2022-08-07T16:39:00.911Z,4.60
2022-08-07T16:42:13.691Z,6.67
2022-08-07T16:46:40.582Z,4.85
2022-08-07T16:48:16.185Z,4.53
2022-08-07T16:51:20.459Z,4.62
2022-08-07T16:54:09.647Z,4.50
2022-08-07T16:56:53.223Z,5.47
2022-08-07T16:59:51.549Z,5.37
2022-08-07T17:02:53.938Z,5.75
2022-08-07T17:06:30.446Z,4.83
2022-08-07T17:08:02.112Z,4.87
2022-08-07T17:10:54.499Z,5.12
2022-08-07T17:14:18.991Z,4.80
2022-08-07T17:16:29.072Z,5.37
2022-08-07T17:19:05.923Z,6.75
2022-08-07T17:21:52.590Z,4.92
2022-08-07T17:24:43.820Z,4.55
2022-08-07T17:27:29.744Z,4.47
2022-08-07T17:30:16.192Z,5.37
2022-08-07T17:34:08.496Z,5.28
2022-08-07T17:36:12.100Z,5.58
2022-08-07T17:38:45.206Z,5.37
2022-08-07T17:42:04.347Z,5.67
2022-08-07T17:44:33.247Z,5.28
2022-08-07T17:46:52.652Z,5.53
2022-08-07T17:49:45.794Z,5.17
2022-08-07T17:52:40.535Z,5.90
2022-08-07T17:55:16.634Z,6.70
2022-08-07T17:58:02.102Z,6.22
2022-08-07T18:00:34.099Z,6.28
2022-08-07T18:03:25.665Z,6.15
2022-08-07T18:06:09.297Z,6.10
2022-08-07T18:09:00.779Z,6.70
2022-08-07T18:12:06.542Z,6.25
2022-08-07T18:14:23.897Z,6.03
2022-08-07T18:16:58.241Z,5.90
2022-08-07T18:21:09.614Z,6.62
2022-08-07T18:22:32.886Z,7.58
2022-08-07T18:25:18.862Z,6.17
2022-08-07T18:28:01.747Z,6.33
2022-08-07T18:31:09.909Z,6.00
2022-08-07T18:33:55.092Z,6.42
2022-08-07T18:36:54.031Z,7.22
2022-08-07T18:40:07.792Z,6.95
2022-08-07T18:42:51.088Z,6.87
2022-08-07T18:45:43.908Z,6.70
2022-08-07T18:50:06.025Z,7.30
2022-08-07T18:51:07.234Z,8.08
2022-08-07T18:53:40.929Z,9.03
2022-08-07T18:57:29.871Z,7.60
2022-08-07T18:59:59.274Z,7.50
2022-08-07T19:02:43.248Z,7.10
2022-08-07T19:05:26.166Z,10.32
2022-08-07T19:08:05.127Z,8.50
2022-08-07T19:10:51.709Z,7.62
2022-08-07T19:13:27.429Z,7.58
2022-08-07T19:17:00.748Z,7.67
2022-08-07T19:19:19.889Z,7.55
2022-08-07T19:22:14.816Z,7.30
2022-08-07T19:29:02.924Z,7.80
2022-08-07T19:31:01.927Z,7.50
2022-08-07T19:32:43.939Z,7.47
2022-08-07T19:35:03.575Z,7.17
2022-08-07T19:37:56.331Z,7.47
2022-08-07T19:40:08.315Z,7.20
2022-08-07T19:42:43.618Z,6.70
2022-08-07T19:46:08.057Z,8.13
2022-08-07T19:47:52.419Z,11.40
2022-08-07T19:50:44.079Z,8.15
2022-08-07T19:52:58.596Z,6.60
2022-08-07T19:55:24.340Z,6.25
2022-08-07T19:58:12.596Z,6.22
2022-08-07T20:00:29.986Z,5.92
2022-08-07T20:03:04.141Z,5.92
2022-08-07T20:06:00.465Z,6.05
2022-08-07T20:08:13.170Z,6.17
2022-08-07T20:10:55.420Z,6.00
2022-08-07T20:13:23.548Z,6.33
2022-08-07T20:15:54.777Z,6.35
2022-08-07T20:18:32.547Z,5.95
2022-08-07T20:20:58.930Z,6.20
2022-08-07T20:23:40.853Z,6.03
2022-08-07T20:26:02.276Z,5.97
2022-08-07T20:31:01.006Z,5.95
2022-08-07T20:33:37.984Z,5.35
2022-08-07T20:36:06.110Z,5.78
2022-08-07T20:38:35.082Z,5.47
2022-08-07T20:41:05.576Z,5.33
2022-08-07T20:43:35.060Z,5.42
2022-08-07T20:46:29.060Z,5.60
2022-08-07T20:48:35.968Z,5.47
2022-08-07T20:51:09.387Z,5.37
2022-08-07T20:54:04.580Z,5.83
2022-08-07T20:56:09.915Z,5.28
2022-08-07T20:58:41.399Z,5.85
2022-08-07T21:01:19.613Z,5.37
2022-08-07T21:04:13.031Z,5.67
2022-08-07T21:06:28.286Z,5.70
2022-08-07T21:09:03.062Z,5.55
2022-08-07T21:11:46.320Z,5.40
2022-08-07T21:16:55.982Z,5.35
2022-08-07T21:19:14.086Z,5.20
2022-08-07T21:21:49.167Z,5.42
2022-08-07T21:24:30.631Z,5.20
2022-08-07T21:27:26.775Z,5.40
2022-08-07T21:30:11.654Z,5.20
2022-08-07T21:32:52.641Z,5.80
2022-08-07T21:35:34.645Z,5.60
2022-08-07T21:38:12.038Z,5.30
2022-08-07T21:43:24.918Z,5.40
2022-08-07T21:46:24.995Z,5.90
2022-08-07T21:49:27.240Z,5.72
2022-08-07T21:52:11.809Z,5.85
2022-08-07T21:55:28.376Z,5.47
2022-08-07T21:58:12.306Z,5.42
2022-08-07T22:00:46.175Z,5.50
2022-08-07T22:03:44.987Z,5.30
2022-08-07T22:06:30.457Z,5.62
2022-08-07T22:08:58.757Z,5.08
2022-08-07T22:11:30.769Z,5.37
2022-08-07T22:14:05.285Z,5.25
2022-08-07T22:16:47.792Z,4.97
2022-08-07T22:19:32.870Z,4.83
2022-08-07T22:22:28.901Z,4.95
2022-08-07T22:24:56.458Z,5.40
2022-08-07T22:28:20.215Z,5.33
2022-08-07T22:30:18.943Z,5.05
2022-08-07T22:33:04.793Z,5.10
2022-08-07T22:35:53.072Z,4.90
2022-08-07T22:38:49.175Z,4.95
2022-08-07T22:42:03.260Z,5.17
2022-08-07T22:44:21.331Z,5.30
2022-08-07T22:47:14.952Z,5.40
2022-08-07T22:53:04.141Z,5.80
2022-08-07T22:56:08.753Z,5.15
2022-08-07T22:59:14.150Z,4.95
2022-08-07T23:02:14.371Z,4.70
2022-08-07T23:06:08.856Z,4.92
2022-08-07T23:08:24.372Z,4.83
2022-08-07T23:11:15.587Z,5.30
2022-08-07T23:14:15.101Z,4.80
2022-08-07T23:16:55.928Z,4.75
2022-08-07T23:20:03.778Z,5.00
2022-08-07T23:24:06.156Z,4.60
2022-08-07T23:26:19.232Z,5.00
2022-08-07T23:29:43.975Z,4.53
2022-08-07T23:35:39.761Z,4.72
2022-08-07T23:38:36.546Z,4.65
2022-08-07T23:41:17.870Z,4.50
2022-08-07T23:44:11.549Z,4.75
2022-08-07T23:47:10.722Z,4.75
2022-08-07T23:50:01.906Z,4.80
2022-08-07T23:52:58.253Z,4.55
2022-08-07T23:55:53.499Z,4.45
2022-08-07T23:58:21.640Z,4.60
